Time;durP1;ratioP1;P1;durP2;ratioP2;P2;SDS_P1;SDS_P2;PMS_P1;PMS_P2;Temp;Humidity;BMP_temperature;BMP_pressure;BME280_temperature;BME280_humidity;BME280_pressure;Samples;Min_cycle;Max_cycle;Signal;HPM_P1;HPM_P2
2022/12/06 00:02:48;;;;;;;23.73;14.90;;;3.90;99.90;;;;;;1893509;75;21159;-85
2022/12/06 00:05:40;;;;;;;23.40;14.87;;;3.90;99.90;;;;;;1911163;75;21102;-86
2022/12/06 00:08:33;;;;;;;23.42;15.40;;;3.90;99.90;;;;;;1893552;75;21104;-86
2022/12/06 00:11:26;;;;;;;27.02;16.60;;;3.80;99.90;;;;;;1886631;75;21100;-85
2022/12/06 00:14:19;;;;;;;24.92;16.12;;;3.80;99.90;;;;;;1893316;75;21110;-85
2022/12/06 00:17:10;;;;;;;22.17;15.70;;;3.80;99.90;;;;;;1905571;75;21106;-85
2022/12/06 00:20:02;;;;;;;25.35;15.72;;;3.70;99.90;;;;;;1893586;75;21136;-84
2022/12/06 00:22:54;;;;;;;24.40;15.90;;;3.70;99.90;;;;;;1887473;75;21176;-86
2022/12/06 00:25:46;;;;;;;25.50;15.38;;;3.70;99.90;;;;;;1905508;74;21103;-85
2022/12/06 00:28:38;;;;;;;24.50;15.50;;;3.70;99.90;;;;;;1896524;74;21156;-85
2022/12/06 00:31:31;;;;;;;24.10;14.80;;;3.70;99.90;;;;;;1915221;74;21101;-86
2022/12/06 00:34:23;;;;;;;22.27;15.00;;;3.70;99.90;;;;;;1913055;74;21206;-87
2022/12/06 00:37:15;;;;;;;22.20;14.55;;;3.70;99.90;;;;;;1910326;74;21113;-85
2022/12/06 00:40:10;;;;;;;21.05;14.47;;;3.80;99.90;;;;;;1902448;74;21094;-85
2022/12/06 00:43:04;;;;;;;22.40;14.70;;;3.70;99.90;;;;;;1903318;74;21082;-85
2022/12/06 00:45:56;;;;;;;21.57;13.97;;;3.70;99.90;;;;;;1903308;74;21097;-85
2022/12/06 00:48:48;;;;;;;21.05;14.25;;;3.70;99.90;;;;;;1907813;74;21129;-85
2022/12/06 00:51:40;;;;;;;21.15;14.40;;;3.70;99.90;;;;;;1906021;74;21148;-85
2022/12/06 00:54:32;;;;;;;21.93;14.00;;;3.70;99.90;;;;;;1903837;74;21216;-85
2022/12/06 00:57:24;;;;;;;22.45;14.78;;;3.70;99.90;;;;;;1903608;74;21107;-86
2022/12/06 01:00:17;;;;;;;23.90;14.75;;;3.70;99.90;;;;;;1905876;74;21113;-85
2022/12/06 01:03:10;;;;;;;21.55;13.98;;;3.70;99.90;;;;;;1897392;73;21106;-86
2022/12/06 01:06:05;;;;;;;19.65;13.80;;;3.80;99.90;;;;;;1917017;73;21432;-86
2022/12/06 01:08:58;;;;;;;23.00;14.03;;;3.70;99.90;;;;;;1900127;74;21184;-85
2022/12/06 01:11:49;;;;;;;22.67;15.38;;;3.70;99.90;;;;;;1904705;74;21066;-85
2022/12/06 01:14:41;;;;;;;21.93;13.80;;;3.70;99.90;;;;;;1909073;74;21094;-85
2022/12/06 01:17:32;;;;;;;20.65;14.07;;;3.70;99.90;;;;;;1914637;74;21117;-85
2022/12/06 01:20:24;;;;;;;22.80;14.75;;;3.70;99.90;;;;;;1914863;74;21054;-85
2022/12/06 01:23:16;;;;;;;20.32;13.45;;;3.70;99.90;;;;;;1916215;74;21191;-85
2022/12/06 01:26:08;;;;;;;19.87;12.43;;;3.70;99.90;;;;;;1916521;74;21167;-85
2022/12/06 01:29:01;;;;;;;21.57;13.43;;;3.60;99.90;;;;;;1911303;74;21676;-85
2022/12/06 01:31:52;;;;;;;20.62;12.98;;;3.60;99.90;;;;;;1909732;74;21090;-86
2022/12/06 01:34:44;;;;;;;21.45;13.90;;;3.50;99.90;;;;;;1910314;74;21090;-86
2022/12/06 01:37:35;;;;;;;21.12;13.60;;;3.50;99.90;;;;;;1913539;74;21129;-86
2022/12/06 01:40:27;;;;;;;20.62;13.10;;;3.50;99.90;;;;;;1912885;74;21126;-85
2022/12/06 01:43:34;;;;;;;21.65;13.03;;;3.50;99.90;;;;;;1902110;74;21175;-85
2022/12/06 01:46:32;;;;;;;20.82;14.33;;;3.50;99.90;;;;;;1921852;74;21121;-85
2022/12/06 01:52:08;;;;;;;20.23;13.58;;;3.50;99.90;;;;;;1957734;72;22243;-86
2022/12/06 01:57:41;;;;;;;20.35;13.30;;;3.50;99.90;;;;;;1953135;72;22234;-85
2022/12/06 02:00:32;;;;;;;21.73;13.22;;;3.40;99.90;;;;;;1895096;75;21180;-86
2022/12/06 02:03:27;;;;;;;20.55;12.10;;;3.40;99.90;;;;;;1883429;75;21110;-85
2022/12/06 02:06:19;;;;;;;22.15;12.55;;;3.30;99.90;;;;;;1895552;75;21090;-85
2022/12/06 02:09:12;;;;;;;19.20;12.13;;;3.40;99.90;;;;;;1909728;75;21509;-86
2022/12/06 02:12:06;;;;;;;18.50;12.10;;;3.30;99.90;;;;;;1884011;75;21126;-86
2022/12/06 02:15:03;;;;;;;19.50;12.58;;;3.30;99.90;;;;;;1833924;77;21132;-85
2022/12/06 02:17:58;;;;;;;17.45;11.53;;;3.20;99.90;;;;;;1901665;75;21067;-85
2022/12/06 02:20:52;;;;;;;18.05;11.93;;;3.20;99.90;;;;;;1906239;75;21066;-85
2022/12/06 02:24:03;;;;;;;17.23;11.57;;;3.20;99.90;;;;;;1905554;75;21213;-85
2022/12/06 02:27:01;;;;;;;18.55;11.38;;;3.20;99.90;;;;;;1888457;75;21187;-85
2022/12/06 02:30:17;;;;;;;18.27;12.07;;;3.20;99.90;;;;;;1907076;75;21075;-85
2022/12/06 02:33:10;;;;;;;20.43;12.20;;;3.20;99.90;;;;;;1894278;75;21164;-85
2022/12/06 02:36:06;;;;;;;16.97;11.60;;;3.10;99.90;;;;;;1897199;75;21126;-85
2022/12/06 02:39:00;;;;;;;17.75;11.60;;;3.00;99.90;;;;;;1898232;75;21127;-86
2022/12/06 02:41:56;;;;;;;20.30;11.78;;;3.10;99.90;;;;;;1883812;75;21102;-85
2022/12/06 02:44:50;;;;;;;17.15;11.45;;;3.10;99.90;;;;;;1884055;75;21099;-85
2022/12/06 02:47:44;;;;;;;17.95;11.30;;;3.00;99.90;;;;;;1832946;77;21140;-85
2022/12/06 02:50:38;;;;;;;19.07;11.08;;;3.00;99.90;;;;;;1901989;75;21176;-85
2022/12/06 02:56:15;;;;;;;18.75;11.65;;;3.00;99.90;;;;;;1950310;72;22201;-86
2022/12/06 02:59:06;;;;;;;18.73;12.00;;;3.00;99.90;;;;;;1814931;77;21109;-85
2022/12/06 03:02:01;;;;;;;19.35;11.88;;;3.00;99.90;;;;;;1891244;75;21111;-85
2022/12/06 03:05:04;;;;;;;21.20;12.00;;;3.00;99.90;;;;;;1886318;75;21128;-85
2022/12/06 03:07:57;;;;;;;15.38;10.20;;;2.90;99.90;;;;;;1892845;75;21135;-86
2022/12/06 03:10:52;;;;;;;14.80;10.03;;;2.90;99.90;;;;;;1900524;75;21047;-85
2022/12/06 03:16:29;;;;;;;13.60;9.28;;;3.00;99.90;;;;;;1957403;72;22206;-85
2022/12/06 03:19:23;;;;;;;13.28;8.73;;;3.00;99.90;;;;;;1896316;75;21110;-85
2022/12/06 03:22:18;;;;;;;12.58;8.20;;;2.90;99.90;;;;;;1886579;75;21070;-85
2022/12/06 03:25:11;;;;;;;14.20;9.03;;;2.80;99.90;;;;;;1887502;75;21140;-85
2022/12/06 03:28:09;;;;;;;14.33;9.05;;;2.70;99.90;;;;;;1908244;75;21138;-85
2022/12/06 03:31:04;;;;;;;15.65;9.93;;;2.70;99.90;;;;;;1901381;75;21091;-85
2022/12/06 03:33:58;;;;;;;16.95;9.98;;;2.70;99.90;;;;;;1896927;75;21163;-85
2022/12/06 03:39:34;;;;;;;15.13;9.88;;;2.70;99.90;;;;;;1952670;72;22165;-86
2022/12/06 03:42:25;;;;;;;14.18;8.75;;;2.70;99.90;;;;;;1892014;75;21076;-85
2022/12/06 03:45:17;;;;;;;17.32;10.85;;;2.70;99.90;;;;;;1896542;75;21114;-85
2022/12/06 03:48:13;;;;;;;16.93;11.00;;;2.80;99.90;;;;;;1894254;73;21052;-85
2022/12/06 03:51:08;;;;;;;14.15;9.58;;;2.80;99.90;;;;;;1932732;73;21110;-86
2022/12/06 03:54:03;;;;;;;13.32;8.90;;;2.70;99.90;;;;;;1890375;75;21241;-85
2022/12/06 03:56:54;;;;;;;14.38;9.93;;;2.70;99.90;;;;;;1917308;75;21090;-85
2022/12/06 03:59:46;;;;;;;17.12;10.78;;;2.70;99.90;;;;;;1910189;74;21520;-85
2022/12/06 04:02:38;;;;;;;17.77;10.28;;;2.70;99.90;;;;;;1906041;75;21099;-85
2022/12/06 04:05:29;;;;;;;12.60;9.28;;;2.70;99.90;;;;;;1906223;75;21098;-85
2022/12/06 04:08:21;;;;;;;15.95;9.88;;;2.70;99.90;;;;;;1884283;76;21621;-85
2022/12/06 04:11:14;;;;;;;17.20;11.48;;;2.70;99.90;;;;;;1884274;75;21102;-84
2022/12/06 04:14:06;;;;;;;16.05;9.80;;;2.80;99.90;;;;;;1891616;75;21091;-85
2022/12/06 04:20:20;;;;;;;15.68;10.25;;;2.80;99.90;;;;;;1848120;75;21159;-87
2022/12/06 04:23:12;;;;;;;14.58;9.45;;;2.70;99.90;;;;;;1896126;75;21231;-85
2022/12/06 04:26:04;;;;;;;15.10;9.73;;;2.70;99.90;;;;;;1884294;76;21184;-86
2022/12/06 04:38:41;;;;;;;14.38;9.88;;;2.80;99.90;;;;;;1883966;75;21192;-85
2022/12/06 04:44:42;;;;;;;11.95;8.15;;;2.80;99.90;;;;;;1884194;76;21139;-86
2022/12/06 04:50:22;;;;;;;13.55;8.63;;;2.80;99.90;;;;;;1958901;72;22174;-85
2022/12/06 04:53:14;;;;;;;13.15;9.08;;;2.80;99.90;;;;;;1916976;75;21048;-85
2022/12/06 04:56:06;;;;;;;13.50;8.23;;;2.70;99.90;;;;;;1922404;73;21151;-85
2022/12/06 04:58:57;;;;;;;11.38;7.15;;;2.70;99.90;;;;;;1927809;73;21579;-85
2022/12/06 05:01:49;;;;;;;11.93;7.85;;;2.70;99.90;;;;;;1916923;75;21109;-85
2022/12/06 05:04:45;;;;;;;12.13;7.17;;;2.70;99.90;;;;;;1916822;75;21176;-85
2022/12/06 05:07:37;;;;;;;10.45;6.92;;;2.70;99.90;;;;;;1916714;75;21091;-87
2022/12/06 05:10:28;;;;;;;10.32;6.75;;;2.60;99.90;;;;;;1916638;75;21183;-85
2022/12/06 05:13:20;;;;;;;10.43;6.70;;;2.50;99.90;;;;;;1916896;75;21098;-85
2022/12/06 05:16:12;;;;;;;13.38;7.55;;;2.50;99.90;;;;;;1917012;75;21109;-85
2022/12/06 05:19:04;;;;;;;11.30;7.05;;;2.40;99.90;;;;;;1916709;73;21697;-85
2022/12/06 05:21:55;;;;;;;10.98;7.15;;;2.40;99.90;;;;;;1916944;73;21152;-85
2022/12/06 05:24:47;;;;;;;13.08;7.22;;;2.40;99.90;;;;;;1916810;75;21186;-85
2022/12/06 05:27:39;;;;;;;11.25;6.90;;;2.40;99.90;;;;;;1925670;73;21110;-85
2022/12/06 05:30:30;;;;;;;10.57;7.17;;;2.40;99.90;;;;;;1927512;73;21122;-84
2022/12/06 05:33:22;;;;;;;10.63;7.20;;;2.40;99.90;;;;;;1922209;73;21168;-85
2022/12/06 05:36:16;;;;;;;10.55;7.12;;;2.40;99.90;;;;;;1917578;73;21105;-85
2022/12/06 05:39:07;;;;;;;14.28;7.37;;;2.40;99.90;;;;;;1931920;73;21106;-84
2022/12/06 05:41:59;;;;;;;11.28;6.72;;;2.30;99.90;;;;;;1916927;75;21114;-85
2022/12/06 05:44:50;;;;;;;12.93;7.17;;;2.40;99.90;;;;;;1917285;73;21175;-84
2022/12/06 05:47:42;;;;;;;9.85;6.85;;;2.30;99.90;;;;;;1916364;75;21225;-85
2022/12/06 05:53:13;;;;;;;12.68;7.87;;;2.30;99.90;;;;;;1951446;72;22175;-85
2022/12/06 05:56:11;;;;;;;14.33;8.48;;;2.30;99.90;;;;;;1880137;75;21176;-85
2022/12/06 05:59:02;;;;;;;13.45;7.75;;;2.40;99.90;;;;;;1874621;75;21143;-85
2022/12/06 06:01:54;;;;;;;11.85;7.37;;;2.40;99.90;;;;;;1885740;75;21134;-84
2022/12/06 06:04:46;;;;;;;13.43;8.30;;;2.40;99.90;;;;;;1886352;75;21106;-85
2022/12/06 06:07:38;;;;;;;11.88;7.85;;;2.50;99.90;;;;;;1875327;75;21159;-85
2022/12/06 06:10:30;;;;;;;11.40;7.87;;;2.50;99.90;;;;;;1893994;75;21044;-86
2022/12/06 06:13:22;;;;;;;12.28;7.85;;;2.60;99.90;;;;;;1891914;75;21103;-85
2022/12/06 06:16:13;;;;;;;19.40;9.75;;;2.70;99.90;;;;;;1886695;75;21123;-85
2022/12/06 06:19:05;;;;;;;16.45;10.75;;;2.70;99.90;;;;;;1882862;75;21083;-85
2022/12/06 06:21:57;;;;;;;17.82;11.05;;;2.70;99.90;;;;;;1879260;75;21219;-85
2022/12/06 06:24:48;;;;;;;17.87;11.63;;;2.80;99.90;;;;;;1872572;76;21111;-85
2022/12/06 06:27:47;;;;;;;19.45;11.15;;;2.70;99.90;;;;;;1888008;75;21227;-84
2022/12/06 06:30:57;;;;;;;;;;;2.80;99.90;;;;;;1888874;75;21530;-85
2022/12/06 06:34:05;;;;;;;14.95;9.45;;;2.80;99.90;;;;;;1886115;75;20174;-86
2022/12/06 06:36:58;;;;;;;14.55;9.18;;;2.80;99.90;;;;;;1894683;75;21177;-86
2022/12/06 06:39:56;;;;;;;17.15;9.85;;;2.80;99.90;;;;;;1863170;77;21164;-85
2022/12/06 06:42:48;;;;;;;20.90;10.93;;;2.90;99.90;;;;;;1882946;75;21196;-85
2022/12/06 06:45:41;;;;;;;17.37;10.43;;;2.90;99.90;;;;;;1887018;75;21055;-84
2022/12/06 06:48:47;;;;;;;17.23;9.38;;;2.80;99.90;;;;;;1886165;75;21079;-85
2022/12/06 06:51:46;;;;;;;15.83;9.20;;;2.80;99.90;;;;;;1898838;75;21118;-85
2022/12/06 06:54:38;;;;;;;14.58;9.25;;;2.70;99.90;;;;;;1896601;75;21204;-85
2022/12/06 06:57:29;;;;;;;12.85;9.10;;;2.80;99.90;;;;;;1874935;75;21083;-85
2022/12/06 07:00:21;;;;;;;16.32;9.55;;;2.80;99.90;;;;;;1872229;76;21143;-85
2022/12/06 07:03:19;;;;;;;17.12;10.15;;;2.90;99.90;;;;;;1894444;73;21084;-87
2022/12/06 07:06:11;;;;;;;17.70;10.88;;;2.90;99.90;;;;;;1890013;75;21086;-85
2022/12/06 07:09:03;;;;;;;17.12;10.32;;;2.90;99.90;;;;;;1893771;75;21221;-85
2022/12/06 07:11:56;;;;;;;14.63;8.73;;;2.90;99.90;;;;;;1884486;75;21059;-85
2022/12/06 07:14:49;;;;;;;14.20;9.13;;;2.90;99.90;;;;;;1910537;75;21147;-85
2022/12/06 07:17:41;;;;;;;15.65;9.15;;;2.90;99.90;;;;;;1897719;75;21113;-85
2022/12/06 07:20:32;;;;;;;13.80;8.50;;;2.80;99.90;;;;;;1885657;75;21183;-86
2022/12/06 07:23:24;;;;;;;17.95;9.38;;;2.80;99.90;;;;;;1881758;75;21224;-86
2022/12/06 07:26:20;;;;;;;16.55;11.20;;;2.80;99.90;;;;;;1891417;75;21141;-85
2022/12/06 07:29:12;;;;;;;16.77;10.78;;;2.90;99.90;;;;;;1886709;75;21330;-85
2022/12/06 07:32:04;;;;;;;18.12;10.10;;;2.90;99.90;;;;;;1903516;75;21115;-85
2022/12/06 07:34:55;;;;;;;14.85;9.08;;;2.90;99.90;;;;;;1898523;75;21122;-85
2022/12/06 07:37:48;;;;;;;15.85;9.98;;;2.80;99.90;;;;;;1871787;75;21235;-85
2022/12/06 07:40:40;;;;;;;17.05;9.60;;;2.80;99.90;;;;;;1887215;75;21212;-85
2022/12/06 07:46:46;;;;;;;16.82;9.90;;;2.80;99.90;;;;;;1871774;75;21158;-85
2022/12/06 07:49:39;;;;;;;17.42;10.60;;;2.80;99.90;;;;;;1893086;75;21090;-86
2022/12/06 07:52:34;;;;;;;14.95;10.75;;;2.90;99.90;;;;;;1871660;75;21067;-85
2022/12/06 07:55:25;;;;;;;16.20;10.82;;;2.80;99.90;;;;;;1890993;75;21171;-85
2022/12/06 07:58:17;;;;;;;17.90;10.13;;;2.80;99.90;;;;;;1871679;75;21719;-85
2022/12/06 08:01:12;;;;;;;14.47;9.48;;;2.80;99.90;;;;;;1880412;75;21099;-85
2022/12/06 08:04:07;;;;;;;18.45;10.80;;;2.80;99.90;;;;;;1882385;75;21178;-85
2022/12/06 08:06:59;;;;;;;15.55;9.75;;;2.70;99.90;;;;;;1882102;75;21107;-87
2022/12/06 08:09:52;;;;;;;13.35;9.53;;;2.80;99.90;;;;;;1887166;75;21612;-85
2022/12/06 08:12:44;;;;;;;15.35;9.08;;;2.70;99.90;;;;;;1871778;77;21071;-85
2022/12/06 08:15:37;;;;;;;13.78;8.18;;;2.80;99.90;;;;;;1893171;75;21160;-82
2022/12/06 08:18:30;;;;;;;14.43;9.53;;;2.80;99.90;;;;;;1893192;75;21060;-86
2022/12/06 08:21:21;;;;;;;12.37;8.13;;;2.70;99.90;;;;;;1889165;75;21259;-84
2022/12/06 08:24:13;;;;;;;15.13;9.75;;;2.80;99.90;;;;;;1884059;75;21103;-84
2022/12/06 08:27:05;;;;;;;18.13;10.13;;;2.80;99.90;;;;;;1874423;75;21151;-83
2022/12/06 08:29:57;;;;;;;16.07;9.95;;;2.80;99.90;;;;;;1865573;75;21154;-84
2022/12/06 08:32:50;;;;;;;15.40;9.03;;;2.70;99.90;;;;;;1888495;75;21185;-82
2022/12/06 08:35:41;;;;;;;20.70;10.10;;;2.80;99.90;;;;;;1885511;75;21083;-83
2022/12/06 08:38:33;;;;;;;15.78;9.40;;;2.80;99.90;;;;;;1881663;75;21151;-83
2022/12/06 08:44:33;;;;;;;13.00;8.00;;;2.70;99.90;;;;;;1879286;75;21174;-84
2022/12/06 08:47:25;;;;;;;15.15;8.45;;;2.80;99.90;;;;;;1890239;75;21161;-84
2022/12/06 08:50:17;;;;;;;13.72;8.28;;;2.70;99.90;;;;;;1889641;75;21102;-83
2022/12/06 08:53:20;;;;;;;13.30;8.73;;;2.80;99.90;;;;;;1892351;75;21558;-83
2022/12/06 08:56:14;;;;;;;14.55;8.63;;;2.80;99.90;;;;;;1899622;75;21115;-83
2022/12/06 08:59:06;;;;;;;15.70;8.20;;;2.80;99.90;;;;;;1881210;75;21176;-83
2022/12/06 09:01:58;;;;;;;11.93;7.17;;;2.80;99.90;;;;;;1883854;75;21691;-83
2022/12/06 09:04:52;;;;;;;13.95;7.70;;;2.80;99.90;;;;;;1884670;75;21146;-83
2022/12/06 09:07:44;;;;;;;13.18;7.47;;;2.90;99.90;;;;;;1873561;75;21102;-83
2022/12/06 09:10:36;;;;;;;13.00;8.13;;;2.80;99.90;;;;;;1892999;75;21133;-83
2022/12/06 09:13:28;;;;;;;13.18;7.97;;;2.80;99.90;;;;;;1892231;75;21119;-83
2022/12/06 09:16:21;;;;;;;11.78;8.15;;;2.80;99.90;;;;;;1887284;75;21080;-83
2022/12/06 09:19:14;;;;;;;16.23;8.60;;;2.90;99.90;;;;;;1882841;75;21225;-83
2022/12/06 09:22:05;;;;;;;13.72;8.25;;;3.00;99.90;;;;;;1881899;75;21095;-83
2022/12/06 09:24:57;;;;;;;17.27;9.75;;;3.00;99.90;;;;;;1882502;75;21164;-83
2022/12/06 09:27:49;;;;;;;14.10;8.93;;;3.10;99.90;;;;;;1886175;75;21094;-83
2022/12/06 09:30:40;;;;;;;12.70;8.58;;;3.10;99.90;;;;;;1884628;75;21063;-83
2022/12/06 09:33:35;;;;;;;13.32;8.28;;;3.10;99.90;;;;;;1882515;75;21091;-83
2022/12/06 09:36:29;;;;;;;13.13;8.75;;;3.10;99.90;;;;;;1882639;75;21111;-83
2022/12/06 09:39:32;;;;;;;14.05;8.40;;;3.10;99.90;;;;;;1883305;75;21529;-83
2022/12/06 09:42:38;;;;;;;12.43;8.30;;;3.00;99.90;;;;;;1890267;75;21107;-83
2022/12/06 09:45:55;;;;;;;13.30;8.13;;;3.10;99.90;;;;;;1871632;77;21110;-83
2022/12/06 09:49:13;;;;;;;14.18;9.10;;;3.20;99.90;;;;;;1852850;77;21200;-83
2022/12/06 09:52:27;;;;;;;16.23;9.85;;;3.20;99.90;;;;;;1888847;75;21103;-82
2022/12/06 09:55:26;;;;;;;16.32;9.65;;;3.30;99.90;;;;;;1888583;74;21535;-83
2022/12/06 09:58:18;;;;;;;;;;;3.20;99.90;;;;;;1886849;75;21104;-84
2022/12/06 10:01:14;;;;;;;17.50;10.98;;;3.20;99.90;;;;;;1876136;75;20178;-84
2022/12/06 10:04:28;;;;;;;16.15;9.95;;;3.20;99.90;;;;;;1877069;75;21059;-84
2022/12/06 10:07:24;;;;;;;58.20;13.93;;;3.20;99.90;;;;;;1879025;75;21107;-83
2022/12/06 10:10:19;;;;;;;14.35;9.58;;;3.20;99.90;;;;;;1893215;75;21390;-84
2022/12/06 10:13:13;;;;;;;18.90;9.60;;;3.20;99.90;;;;;;1888482;75;21051;-84
2022/12/06 10:16:10;;;;;;;14.45;9.20;;;3.20;99.90;;;;;;1896291;75;21143;-85
2022/12/06 10:19:12;;;;;;;15.83;8.83;;;3.20;99.90;;;;;;1893639;75;21165;-83
2022/12/06 10:22:09;;;;;;;16.20;8.90;;;3.20;99.90;;;;;;1841571;77;21102;-83
2022/12/06 10:25:05;;;;;;;19.40;9.48;;;3.30;99.90;;;;;;1896316;75;21048;-83
2022/12/06 10:28:02;;;;;;;17.12;8.98;;;3.50;99.90;;;;;;1859996;76;21134;-83
2022/12/06 10:30:55;;;;;;;18.85;10.20;;;3.60;99.90;;;;;;1891665;75;21183;-83
2022/12/06 10:33:51;;;;;;;14.80;10.28;;;3.60;99.90;;;;;;1885605;75;21159;-83
2022/12/06 10:36:46;;;;;;;18.17;10.08;;;3.60;99.90;;;;;;1874614;75;21176;-83
2022/12/06 10:39:42;;;;;;;16.60;11.03;;;3.70;99.90;;;;;;1874145;75;21589;-83
2022/12/06 10:42:38;;;;;;;18.00;12.03;;;3.80;99.90;;;;;;1885827;75;21165;-83
2022/12/06 10:48:44;;;;;;;21.15;12.73;;;4.10;99.90;;;;;;1886569;75;21067;-83
2022/12/06 10:51:41;;;;;;;17.90;11.15;;;4.00;99.90;;;;;;1882507;75;21168;-85
2022/12/06 10:54:35;;;;;;;16.17;10.10;;;4.10;99.90;;;;;;1881912;75;21099;-83
2022/12/06 11:00:17;;;;;;;19.87;12.80;;;4.20;99.90;;;;;;1954479;72;22230;-84
2022/12/06 11:03:15;;;;;;;20.08;13.32;;;4.20;99.90;;;;;;1896880;75;21113;-83
2022/12/06 11:06:14;;;;;;;19.80;13.18;;;4.30;99.90;;;;;;1894668;75;21213;-84
2022/12/06 11:09:15;;;;;;;18.50;12.23;;;4.30;99.90;;;;;;1909931;75;21125;-83
2022/12/06 11:12:13;;;;;;;19.70;11.90;;;4.30;99.90;;;;;;1905634;75;21499;-83
2022/12/06 11:15:08;;;;;;;17.10;11.18;;;4.40;99.90;;;;;;1904858;75;21054;-83
2022/12/06 11:18:04;;;;;;;16.70;11.28;;;4.50;99.90;;;;;;1900340;75;21228;-83
2022/12/06 11:20:59;;;;;;;16.15;10.25;;;4.50;99.90;;;;;;1896215;75;21225;-83
2022/12/06 11:23:58;;;;;;;15.63;10.80;;;4.50;99.90;;;;;;1887025;75;21067;-85
2022/12/06 11:29:32;;;;;;;16.50;10.13;;;4.50;99.90;;;;;;1953854;72;22114;-83
2022/12/06 11:32:24;;;;;;;16.17;10.20;;;4.50;99.90;;;;;;1897908;75;21217;-84
2022/12/06 11:35:18;;;;;;;17.30;10.35;;;4.50;99.90;;;;;;1895131;75;21153;-84
2022/12/06 11:38:12;;;;;;;17.15;10.75;;;4.40;99.90;;;;;;1890671;75;21183;-83
2022/12/06 11:41:07;;;;;;;15.35;10.28;;;4.40;99.90;;;;;;1884219;76;21118;-84
2022/12/06 11:46:41;;;;;;;16.55;10.60;;;4.40;99.90;;;;;;1941377;72;22173;-83
2022/12/06 11:49:35;;;;;;;16.12;10.20;;;4.50;99.90;;;;;;1917736;74;21800;-84
2022/12/06 11:52:30;;;;;;;16.93;10.88;;;4.50;99.90;;;;;;1918759;74;21554;-83
2022/12/06 11:55:24;;;;;;;16.93;11.28;;;4.50;99.90;;;;;;1864995;76;21471;-83
2022/12/06 11:58:21;;;;;;;18.37;12.47;;;4.60;99.90;;;;;;1895976;75;21094;-83
2022/12/06 12:01:13;;;;;;;15.48;11.40;;;4.60;99.90;;;;;;1916139;75;21109;-82
2022/12/06 12:04:26;;;;;;;15.72;10.70;;;4.60;99.90;;;;;;1916758;74;21059;-84
2022/12/06 12:07:21;;;;;;;18.37;10.95;;;4.50;99.90;;;;;;1918005;74;21094;-83
2022/12/06 12:10:35;;;;;;;18.65;11.68;;;4.70;99.90;;;;;;1879526;76;21175;-83
2022/12/06 12:13:47;;;;;;;16.62;10.70;;;4.80;99.90;;;;;;1904703;75;21170;-83
2022/12/06 12:16:42;;;;;;;17.48;12.03;;;4.80;99.90;;;;;;1847270;77;21127;-84
2022/12/06 12:19:38;;;;;;;16.62;11.35;;;4.80;99.90;;;;;;1838558;77;21132;-83
2022/12/06 12:22:35;;;;;;;15.93;11.38;;;4.80;99.90;;;;;;1832362;77;21107;-83
2022/12/06 12:25:29;;;;;;;17.92;12.05;;;4.90;99.90;;;;;;1918253;74;21548;-84
2022/12/06 12:28:27;;;;;;;16.27;11.53;;;5.00;99.90;;;;;;1905328;74;21163;-83
2022/12/06 12:31:21;;;;;;;17.30;11.73;;;5.10;99.90;;;;;;1860783;76;21182;-84
2022/12/06 12:34:20;;;;;;;16.48;11.90;;;5.10;99.90;;;;;;1900935;75;21592;-83
2022/12/06 12:37:19;;;;;;;17.73;11.53;;;5.10;99.90;;;;;;1899704;74;21166;-84
2022/12/06 12:40:22;;;;;;;16.52;11.90;;;5.10;99.90;;;;;;1917158;74;21093;-85
2022/12/06 12:43:20;;;;;;;16.65;11.80;;;5.00;99.90;;;;;;1917871;74;21143;-85
2022/12/06 12:46:21;;;;;;;15.58;11.95;;;4.90;99.90;;;;;;1918180;74;21126;-84
2022/12/06 12:52:14;;;;;;;15.40;10.08;;;4.90;99.90;;;;;;1939822;72;22198;-84
2022/12/06 12:55:18;;;;;;;13.48;9.43;;;4.90;99.90;;;;;;1916998;75;21095;-84
2022/12/06 13:00:54;;;;;;;13.90;9.48;;;4.90;99.90;;;;;;1949739;72;22224;-83
2022/12/06 13:03:47;;;;;;;17.57;10.75;;;4.90;99.90;;;;;;1904318;75;21133;-84
2022/12/06 13:06:45;;;;;;;15.28;10.88;;;4.90;99.90;;;;;;1899649;75;21126;-83
2022/12/06 13:09:43;;;;;;;17.15;11.30;;;4.90;99.90;;;;;;1883670;75;21114;-84
2022/12/06 13:12:38;;;;;;;15.80;10.35;;;5.00;99.90;;;;;;1883872;75;21098;-83
2022/12/06 13:15:35;;;;;;;14.50;10.10;;;5.00;99.90;;;;;;1905959;75;21114;-83
2022/12/06 13:18:29;;;;;;;14.60;10.40;;;5.10;99.90;;;;;;1906011;75;21107;-84
2022/12/06 13:21:24;;;;;;;14.78;10.60;;;5.10;99.90;;;;;;1899573;75;21746;-85
2022/12/06 13:24:20;;;;;;;14.75;10.75;;;5.10;99.90;;;;;;1896666;75;21047;-83
2022/12/06 13:27:16;;;;;;;15.88;10.90;;;5.10;99.90;;;;;;1894970;75;21546;-83
2022/12/06 13:30:15;;;;;;;16.02;10.80;;;5.20;99.90;;;;;;1890930;75;21098;-82
2022/12/06 13:33:10;;;;;;;16.95;10.38;;;5.20;99.90;;;;;;1906306;75;21197;-83
2022/12/06 13:36:06;;;;;;;16.20;9.90;;;5.20;99.90;;;;;;1902541;75;21570;-83
2022/12/06 13:38:58;;;;;;;13.68;9.48;;;5.30;99.90;;;;;;1884137;75;21097;-82
2022/12/06 13:45:09;;;;;;;15.72;10.28;;;5.30;99.90;;;;;;1883836;76;21098;-83
2022/12/06 13:48:00;;;;;;;15.55;10.65;;;5.30;99.90;;;;;;1905808;75;21503;-83
2022/12/06 13:50:55;;;;;;;13.70;10.03;;;5.30;99.90;;;;;;1883824;76;21118;-83
2022/12/06 13:54:28;;;;;;;16.00;10.60;;;5.30;99.90;;;;;;1836204;77;21600;-83
2022/12/06 13:57:31;;;;;;;18.70;10.85;;;5.40;99.90;;;;;;1895418;75;21577;-83
2022/12/06 14:00:50;;;;;;;13.98;10.48;;;5.40;99.90;;;;;;1896757;75;21163;-83
2022/12/06 14:03:42;;;;;;;17.15;10.43;;;5.40;99.90;;;;;;1891060;75;21110;-84
2022/12/06 14:06:45;;;;;;;14.98;10.35;;;5.50;99.90;;;;;;1904703;75;21198;-83
2022/12/06 14:09:40;;;;;;;13.65;9.75;;;5.50;99.90;;;;;;1884801;75;21059;-82
2022/12/06 14:12:32;;;;;;;13.75;10.10;;;5.60;99.90;;;;;;1894404;75;21102;-83
2022/12/06 14:15:24;;;;;;;15.13;10.70;;;5.60;99.90;;;;;;1893680;75;21163;-83
2022/12/06 14:18:25;;;;;;;16.25;9.90;;;5.60;99.90;;;;;;1897070;75;21093;-83
2022/12/06 14:21:24;;;;;;;14.33;9.80;;;5.60;99.90;;;;;;1900015;75;21106;-83
2022/12/06 14:24:34;;;;;;;14.33;9.93;;;5.70;99.90;;;;;;1884218;75;21095;-83
2022/12/06 14:27:29;;;;;;;13.60;9.83;;;5.70;99.90;;;;;;1895411;75;21680;-85
2022/12/06 14:30:23;;;;;;;16.02;10.50;;;5.70;99.90;;;;;;1882585;75;21139;-83
2022/12/06 14:33:22;;;;;;;12.18;8.80;;;5.80;99.90;;;;;;1893986;75;21129;-84
2022/12/06 14:36:19;;;;;;;15.53;9.70;;;5.70;99.90;;;;;;1894380;75;21094;-84
2022/12/06 14:45:12;;;;;;;16.23;10.00;;;5.40;99.90;;;;;;1916878;75;21183;-83
2022/12/06 14:48:05;;;;;;;15.65;10.00;;;5.40;99.90;;;;;;1854556;76;21624;-84
2022/12/06 14:51:03;;;;;;;16.52;10.05;;;5.40;99.90;;;;;;1916980;75;21111;-83
2022/12/06 14:53:55;;;;;;;14.25;10.08;;;5.40;99.90;;;;;;1920520;74;21089;-83
2022/12/06 14:56:47;;;;;;;16.45;10.08;;;5.30;99.90;;;;;;1897982;74;21208;-84
2022/12/06 14:59:39;;;;;;;14.15;9.70;;;5.30;99.90;;;;;;1858581;76;21114;-83
2022/12/06 15:02:32;;;;;;;14.98;9.98;;;5.20;99.90;;;;;;1916627;75;21125;-83
2022/12/06 15:05:35;;;;;;;16.52;9.75;;;5.20;99.90;;;;;;1916937;75;21437;-85
2022/12/06 15:08:34;;;;;;;13.00;9.83;;;5.10;99.90;;;;;;1883690;76;21074;-83
2022/12/06 15:14:50;;;;;;;15.10;10.20;;;5.20;99.90;;;;;;1899386;75;21147;-83
2022/12/06 15:17:43;;;;;;;13.48;9.48;;;5.10;99.90;;;;;;1916859;75;21164;-84
2022/12/06 15:20:35;;;;;;;15.20;10.65;;;5.10;99.90;;;;;;1918120;74;21101;-83
2022/12/06 15:23:39;;;;;;;14.13;9.60;;;5.00;99.90;;;;;;1918265;74;21145;-84
2022/12/06 15:26:30;;;;;;;14.80;10.03;;;5.00;99.90;;;;;;1916471;75;21099;-83
2022/12/06 15:29:23;;;;;;;15.55;10.15;;;5.00;99.90;;;;;;1916537;75;21056;-82
2022/12/06 15:32:16;;;;;;;13.75;9.83;;;5.00;99.90;;;;;;1884008;76;21110;-83
2022/12/06 15:35:11;;;;;;;15.85;11.85;;;4.90;99.90;;;;;;1913067;74;21087;-83
2022/12/06 15:38:03;;;;;;;15.55;11.33;;;4.90;99.90;;;;;;1916710;75;21089;-83
2022/12/06 15:40:55;;;;;;;14.05;10.80;;;4.90;99.90;;;;;;1914275;75;21187;-84
2022/12/06 15:43:48;;;;;;;15.30;10.58;;;4.80;99.90;;;;;;1850069;77;21348;-83
2022/12/06 15:46:43;;;;;;;15.90;11.35;;;4.80;99.90;;;;;;1854166;77;21134;-83
2022/12/06 15:49:36;;;;;;;20.40;11.18;;;4.80;99.90;;;;;;1850090;77;21151;-83
2022/12/06 15:52:29;;;;;;;16.67;11.30;;;4.70;99.90;;;;;;1818513;78;21205;-83
2022/12/06 15:55:20;;;;;;;14.78;9.50;;;4.70;99.90;;;;;;1908426;75;21541;-83
2022/12/06 15:58:12;;;;;;;15.83;11.25;;;4.70;99.90;;;;;;1883076;75;21456;-83
2022/12/06 16:01:10;;;;;;;19.45;11.18;;;4.70;99.90;;;;;;1916205;75;21107;-83
2022/12/06 16:04:03;;;;;;;17.10;10.93;;;4.60;99.90;;;;;;1916303;75;21132;-83
2022/12/06 16:06:54;;;;;;;29.07;15.85;;;4.50;99.90;;;;;;1916146;75;21107;-82
2022/12/06 16:09:46;;;;;;;18.02;11.45;;;4.40;99.90;;;;;;1897973;75;21160;-83
2022/12/06 16:15:50;;;;;;;19.25;13.22;;;4.30;99.90;;;;;;1916533;74;21091;-84
2022/12/06 16:18:42;;;;;;;23.25;13.48;;;4.30;99.90;;;;;;1916234;75;21120;-83